Tiempo atmosférico en la estación meteorológica de Alpandeire, Málaga (680 m.)



Fecha
DESCASC
Temp. máxima en grados centígrados (hora)
DESCASC
Temp. mínima en grados centígrados (hora)
DESCASC
Temp. media en grados centígrados
DESCASC
Racha de viento máxima en m/sg (hora)
DESCASC
Velocidad máxima media en intervalos de 10 minutos(hora)
DESCASC
Precipitaciones diarias en mm
DESCASC
Precipitaciones de 00:00 a 06:00 en mm
DESCASC
Precipitaciones de 06:00 a 12:00 en mm
DESCASC
Precipitaciones de 12:00 a 18:00 en mm
DESCASC
Precipitaciones de 18:00 a 24:00 en mm
DESCASC
25-04-2019 15.1 (18:30) 9.6 (23:59) 12.4 14.44 (05:10) 6.67 (05:00) 13.2 9.6 3.4 0.2 0
24-04-2019 11.5 (18:10) 7.3 (01:20) 9.4 8.89 (23:50) 4.72 (00:10) 9.6 1.2 3 2 3.4
23-04-2019 13 (17:50) 7.5 (10:50) 10.3 13.33 (04:30) 7.5 (17:30) 7.8 0 7.8 0 0
22-04-2019 18.9 (17:00) 9.6 (00:00) 14.3 12.78 (05:00) 6.39 (04:30) 0 0 0 0 0
21-04-2019 15.4 (13:10) 8 (00:00) 11.7 7.5 (19:20) 3.33 (19:20) 0.4 0 0 0.2 0.2
20-04-2019 16.9 (14:10) 7.3 (00:00) 12.1 6.67 (14:40) 3.89 (16:00) 7.4 0 0 3 4.4
19-04-2019 15.9 (18:00) 6.3 (00:00) 11.1 6.67 (19:50) 3.61 (20:00) 5 0 0 1 4
18-04-2019 16.3 (17:50) 8.2 (00:00) 12.2 8.33 (15:00) 4.72 (17:10) 5.8 1.2 1.4 0.2 3
17-04-2019 14.6 (11:30) 11.9 (00:00) 13.3 12.22 (06:20) 6.67 (09:20) 0 0 0 0 0
16-04-2019 23.7 (18:00) 9.5 (00:00) 16.6 11.11 (23:20) 5.28 (23:59) 0 0 0 0 0
15-04-2019 23.4 (14:40) 12.4 (00:00) 17.9 11.67 (14:50) 6.67 (15:00) 0 0 0 0 0
14-04-2019 25.2 (16:50) 12 (00:00) 18.6 7.5 (16:10) 4.17 (16:10) 0 0 0 0 0
13-04-2019 22.5 (17:30) 8.9 (00:00) 15.7 8.61 (20:00) 4.72 (20:00) 0 0 0 0 0
12-04-2019 20.4 (17:00) 8 (00:00) 14.2 8.33 (19:20) 3.89 (21:30) 0 0 0 0 0
11-04-2019 18.1 (17:40) 6.7 (00:00) 12.4 10.83 (14:00) 5 (13:40) 0 0 0 0 0
10-04-2019 15.6 (16:10) 6.7 (00:00) 11.2 11.11 (14:10) 4.72 (07:50) 0 0 0 0 0
09-04-2019 15.4 (16:40) 7.8 (00:00) 11.6 11.67 (00:30) 5.83 (14:10) 0.2 0.2 0 0 0
08-04-2019 13 (16:30) 9.4 (00:00) 11.2 10 (15:40) 5 (15:40) 3.4 1.4 0.6 1 0.4
07-04-2019 13.2 (16:20) 6.8 (00:00) 10 11.11 (21:40) 5.83 (04:50) 16.8 2.2 0.2 2.4 12
06-04-2019 9.3 (15:50) 5.6 (00:00) 7.5 13.61 (18:10) 7.22 (18:10) 8.6 0 2.4 3.8 2.4
05-04-2019 11.1 (16:40) 6.7 (00:00) 8.9 16.11 (18:40) 8.33 (18:40) 16 0.4 10.8 4 0.8
04-04-2019 16.5 (16:50) 5.5 (00:00) 11 10 (00:10) 5 (17:20) 0 0 0 0 0
03-04-2019 20 (16:40) 8.6 (00:00) 14.3 9.72 (23:59) 4.44 (14:30) 0 0 0 0 0
02-04-2019 19.2 (16:20) 6.6 (00:00) 12.9 6.11 (15:00) 3.33 (17:50) 0 0 0 0 0
01-04-2019 14.3 (18:10) 9 (00:00) 11.7 7.22 (06:50) 3.33 (06:50) 10.8 0 9.2 1.6 0
31-03-2019 16.4 (14:30) 9.7 (00:00) 13 6.39 (00:40) 3.89 (00:40) 14 6.2 0 4.2 3.6
30-03-2019 15.2 (13:20) 8.5 (00:00) 11.8 11.67 (04:00) 4.72 (11:10) 0.2 0 0 0 0.2
29-03-2019 13 (13:40) 8.2 (00:00) 10.6 11.11 (13:50) 5.28 (13:50) 0 0 0 0 0
28-03-2019 15.3 (14:40) 7.2 (00:00) 11.3 14.44 (14:20) 6.11 (13:40) 0 0 0 0 0
27-03-2019 14.8 (15:00) 8 (00:00) 11.4 15.28 (11:30) 6.67 (04:20) 0 0 0 0 0

Gráficas

Temp. máximas Temp. mínimas Temp. medias Precipitaciones Rachas de viento máximas Velocidades máximas media en intervalos de 10 minutos

Datos horarios

Fecha y hora oficial Temperatura (ºC) Velocidad del viento (km/h) Dirección del viento Racha (km/h) Dirección de racha Precipitación (mm) Presión (hPa) Tendencia (hPa) Humedad (%)
2019-04-25 23:00:00 10.6 5 Sudoeste 15 Sudoeste 0 -- -- 75
2019-04-25 22:00:00 11.1 3 Sur 19 Noroeste 0 -- -- 75
2019-04-25 21:00:00 11.9 5 Noroeste 19 Noroeste 0 -- -- 68
2019-04-25 20:00:00 13.4 7 Oeste 28 Oeste 0 -- -- 66
2019-04-25 19:00:00 15 15 Oeste 36 Oeste 0 -- -- 60
2019-04-25 18:00:00 15 15 Oeste 40 Oeste 0.2 -- -- 64
2019-04-25 17:00:00 12.8 11 Noroeste 32 Noroeste 0 -- -- 81
2019-04-25 16:00:00 12.4 16 Oeste 35 Oeste 0 -- -- 87
2019-04-25 15:00:00 13.4 22 Oeste 40 Oeste 0 -- -- 73
2019-04-25 14:00:00 12.5 9 Oeste 34 Oeste 0 -- -- 82
2019-04-25 13:00:00 11.9 10 Oeste 24 Oeste 0 -- -- 82
2019-04-25 12:00:00 10.8 10 Oeste 22 Oeste 0 -- -- 85
2019-04-25 11:00:00 11 7 Sur 36 Oeste 0 -- -- 90
2019-04-25 10:00:00 11.2 8 Noroeste 26 Noroeste 0 -- -- 93
2019-04-25 09:00:00 11.1 12 Noroeste 36 Oeste 0.8 -- -- 94
2019-04-25 08:00:00 11.6 9 Oeste 30 Oeste 0.4 -- -- 95
2019-04-25 07:00:00 11.7 23 Oeste 41 Oeste 2.2 -- -- 94
2019-04-25 06:00:00 11.7 15 Oeste 52 Oeste 1 -- -- 95
2019-04-25 05:00:00 11.8 24 Oeste 50 Oeste 0.8 -- -- 94
2019-04-25 04:00:00 11.7 24 Oeste 44 Oeste 0.4 -- -- 94
2019-04-25 03:00:00 11.4 16 Oeste 36 Oeste 3.2 -- -- 97
2019-04-25 02:00:00 11.4 8 Sudoeste 37 Sur 2.6 -- -- 97
2019-04-25 01:00:00 11.2 7 Oeste 24 Sudoeste 1.6 -- -- 97
2019-04-25 00:00:00 11.1 11 Oeste 32 Sudoeste 1.8 -- -- 97
2019-04-24 23:00:00 10.8 8 Sudoeste 30 Oeste 0.8 -- -- 97
2019-04-24 22:00:00 10.6 12 Oeste 26 Oeste 0.8 -- -- 95
2019-04-24 21:00:00 10.7 11 Oeste 28 Oeste 0 -- -- 91
2019-04-24 20:00:00 10.9 9 Sudoeste 22 Oeste 0 -- -- 89
2019-04-24 19:00:00 11.1 8 Sudoeste 27 Oeste 0 -- -- 89
2019-04-24 18:00:00 11.3 13 Oeste 28 Oeste 0 -- -- 88
2019-04-24 17:00:00 11.2 5 Sudoeste 18 Sudeste 0 -- -- 94
2019-04-24 16:00:00 10.4 5 Sudoeste 17 Oeste 0.6 -- -- 95
2019-04-24 15:00:00 10.1 3 Sudoeste 18 Sudoeste 0.8 -- -- 95
2019-04-24 14:00:00 10 9 Sudoeste 23 Oeste 0.2 -- -- 94
2019-04-24 13:00:00 9.8 5 Sudoeste 17 Oeste 0.4 -- -- 95
2019-04-24 12:00:00 9.9 5 Sudoeste 18 Sudoeste 0.2 -- -- 93
2019-04-24 11:00:00 9.4 2 Sudoeste 12 Sur 0.2 -- -- 94
2019-04-24 10:00:00 8.6 4 Sur 15 Noroeste 2 -- -- 94
2019-04-24 09:00:00 8.3 2 Sudoeste 10 Oeste 0.6 -- -- 93
2019-04-24 08:00:00 7.8 3 Sudoeste 13 Sudoeste 0 -- -- 91
2019-04-24 07:00:00 7.7 3 Sudoeste 11 Sudoeste 0 -- -- 89
2019-04-24 06:00:00 7.6 4 Sudoeste 17 Noroeste 0.2 -- -- 87
2019-04-24 05:00:00 7.7 8 Oeste 23 Oeste 0 -- -- 87
2019-04-24 04:00:00 7.7 5 Sur 13 Sudoeste 0 -- -- 91
2019-04-24 03:00:00 7.7 2 Sudeste 31 Oeste 0 -- -- 88
2019-04-24 02:00:00 7.4 12 Oeste 30 Oeste 0.4 -- -- 89
2019-04-24 01:00:00 7.5 6 Oeste 31 Oeste 0.6 -- -- 85
2019-04-24 00:00:00 8.4 17 Oeste 34 Oeste 0 -- -- 74
2019-04-23 23:00:00 8.4 13 Oeste 33 Noroeste 0 -- -- 73
2019-04-23 22:00:00 8.7 14 Oeste 27 Oeste 0 -- -- 70
2019-04-23 21:00:00 9.3 11 Oeste 48 Norte 0 -- -- 69
2019-04-23 20:00:00 10.2 22 Oeste 42 Oeste 0 -- -- 60
2019-04-23 19:00:00 11.8 25 Oeste 44 Noroeste 0 -- -- 56
2019-04-23 18:00:00 12.8 24 Oeste 44 Oeste 0 -- -- 53
2019-04-23 17:00:00 12.8 15 Oeste 40 Oeste 0 -- -- 56
2019-04-23 16:00:00 12 16 Oeste 42 Oeste 0 -- -- 54
2019-04-23 15:00:00 12.6 20 Oeste 46 Oeste 0 -- -- 56
2019-04-23 14:00:00 11.3 13 Noroeste 39 Oeste 0 -- -- 57
2019-04-23 13:00:00 10.5 15 Oeste 43 Oeste 0 -- -- 60
2019-04-23 12:00:00 9 12 Noroeste 30 Oeste 0 -- -- 70
2019-04-23 11:00:00 7.5 8 Noroeste 36 Oeste 0 -- -- 75
2019-04-23 10:00:00 7.9 10 Oeste 28 Noroeste 0.6 -- -- 84
2019-04-23 09:00:00 9.2 8 Oeste 48 Oeste 2.2 -- -- 88
2019-04-23 08:00:00 9.9 16 Oeste 37 Sudoeste 4.8 -- -- 93
2019-04-23 07:00:00 10.4 12 Oeste 26 Sudoeste 0.2 -- -- 91
2019-04-23 06:00:00 11.1 5 Sudoeste 31 Sur 0 -- -- 81
2019-04-23 05:00:00 11.2 15 Oeste 48 Oeste 0 -- -- 77
2019-04-23 04:00:00 11.4 26 Oeste 46 Oeste 0 -- -- 80
2019-04-23 03:00:00 11.7 11 Sudoeste 38 Oeste 0 -- -- 79
2019-04-23 02:00:00 11.6 9 Oeste 26 Oeste 0 -- -- 79
2019-04-23 01:00:00 11.6 9 Oeste 19 Oeste 0 -- -- 81
2019-04-23 00:00:00 11.9 5 Sudoeste 28 Oeste 0 -- -- 83
2019-04-22 23:00:00 12 8 Sudoeste 21 Sudoeste 0 -- -- 83
2019-04-22 22:00:00 12.8 6 Oeste 21 Oeste 0 -- -- 77
2019-04-22 21:00:00 13.7 8 Oeste 28 Oeste 0 -- -- 67
2019-04-22 20:00:00 15.6 13 Oeste 35 Oeste 0 -- -- 62
2019-04-22 19:00:00 17.9 17 Oeste 32 Oeste 0 -- -- 52
2019-04-22 18:00:00 18.2 16 Noroeste 37 Oeste 0 -- -- 49
2019-04-22 17:00:00 18.9 14 Oeste 39 Noroeste 0 -- -- 48
2019-04-22 16:00:00 18.4 14 Oeste 40 Oeste 0 -- -- 53
2019-04-22 15:00:00 17.9 14 Oeste 36 Oeste 0 -- -- 53
2019-04-22 14:00:00 16.9 10 Noroeste 29 Oeste 0 -- -- 56
2019-04-22 13:00:00 15.2 17 Oeste 33 Oeste 0 -- -- 59
2019-04-22 12:00:00 14.2 14 Oeste 27 Oeste 0 -- -- 59
2019-04-22 11:00:00 14.4 5 Oeste 15 Oeste 0 -- -- 62
2019-04-22 10:00:00 12.2 7 Este 22 Nordeste 0 -- -- 68
2019-04-22 09:00:00 10.3 11 Nordeste 29 Nordeste 0 -- -- 72
2019-04-22 08:00:00 10.1 17 Nordeste 34 Nordeste 0 -- -- 73
2019-04-22 07:00:00 10.1 16 Nordeste 39 Norte 0 -- -- 74
2019-04-22 06:00:00 10.2 20 Nordeste 41 Nordeste 0 -- -- 73
2019-04-22 05:00:00 9.9 13 Nordeste 46 Norte 0 -- -- 76
2019-04-22 04:00:00 9.9 17 Nordeste 32 Nordeste 0 -- -- 77
2019-04-22 03:00:00 10 12 Norte 26 Nordeste 0 -- -- 78
2019-04-22 02:00:00 10.2 10 Nordeste 26 Nordeste 0 -- -- 78
2019-04-22 01:00:00 9.6 4 Noroeste 13 Norte 0 -- -- 82
2019-04-22 00:00:00 10 2 Sudeste 20 Este 0 -- -- 84
2019-04-21 23:00:00 10.6 3 Sur 21 Este 0 -- -- 86
2019-04-21 22:00:00 11.2 4 Sudeste 12 Este 0 -- -- 80
2019-04-21 21:00:00 11.7 6 Sudeste 19 Norte 0 -- -- 81
2019-04-21 20:00:00 12.6 9 Norte 27 Nordeste 0.2 -- -- 76
2019-04-21 19:00:00 13.5 10 Norte 22 Norte 0 -- -- 73
2019-04-21 18:00:00 14.2 7 Norte 15 Noroeste 0 -- -- 71
2019-04-21 17:00:00 14.6 2 Sur 8 Sudoeste 0.2 -- -- 82
2019-04-21 16:00:00 14.4 5 Sudeste 14 Sudeste 0 -- -- 77
2019-04-21 15:00:00 14.7 7 Oeste 12 Oeste 0 -- -- 72
2019-04-21 14:00:00 14.9 5 Oeste 12 Sudoeste 0 -- -- 69
2019-04-21 13:00:00 15.2 6 Sudoeste 14 Sudoeste 0 -- -- 69
2019-04-21 12:00:00 14.1 4 Sudoeste 10 Sudoeste 0 -- -- 72
2019-04-21 11:00:00 12.5 0 Calma 4 Sudoeste 0 -- -- 81
2019-04-21 10:00:00 12 2 Sudoeste 5 Sur 0 -- -- 81
2019-04-21 09:00:00 9.9 0 Calma 5 Este 0 -- -- 87
2019-04-21 08:00:00 8.2 2 Este 7 Nordeste 0 -- -- 89
2019-04-21 07:00:00 8.3 4 Nordeste 7 Nordeste 0 -- -- 89
2019-04-21 06:00:00 8.3 3 Nordeste 8 Noroeste 0 -- -- 91
2019-04-21 05:00:00 8 4 Este 5 Este 0 -- -- 89
2019-04-21 04:00:00 9.1 0 Calma 5 Este 0 -- -- 90
2019-04-21 03:00:00 10 0 Calma 3 Norte 0 -- -- 91
2019-04-21 02:00:00 10.2 0 Calma 4 Noroeste 0 -- -- 91
2019-04-21 01:00:00 10.4 0 Calma 8 Este 0 -- -- 88
2019-04-21 00:00:00 10.6 0 Calma 7 Este 0 -- -- 88
2019-04-20 23:00:00 10.9 2 Este 6 Sudeste 0 -- -- 86
2019-04-20 22:00:00 11.2 0 Calma 12 Nordeste 0.2 -- -- 89
2019-04-20 21:00:00 11.6 9 Este 14 Este 0.6 -- -- 87
2019-04-20 20:00:00 12.7 6 Este 16 Este 3.6 -- -- 85
2019-04-20 19:00:00 14.9 0 Calma 6 Sudoeste 0 -- -- 71
2019-04-20 18:00:00 15.8 4 Oeste 10 Sudoeste 1.4 -- -- 76
2019-04-20 17:00:00 15.1 7 Oeste 18 Nordeste 0.2 -- -- 80
2019-04-20 16:00:00 12.6 14 Nordeste 21 Nordeste 1.4 -- -- 82
2019-04-20 15:00:00 15.6 7 Sudeste 24 Sudoeste 0 -- -- 66
2019-04-20 14:00:00 16.7 4 Noroeste 15 Noroeste 0 -- -- 57
2019-04-20 13:00:00 15.1 8 Oeste 18 Oeste 0 -- -- 67
2019-04-20 12:00:00 13.5 3 Noroeste 10 Oeste 0 -- -- 75
2019-04-20 11:00:00 11.2 4 Sudoeste 7 Sudoeste 0 -- -- 82
2019-04-20 10:00:00 10.2 2 Oeste 8 Sudeste 0 -- -- 84
2019-04-20 09:00:00 8.6 0 Calma 8 Este 0 -- -- 85
2019-04-20 08:00:00 7.9 0 Calma 6 Este 0 -- -- 86
2019-04-20 07:00:00 7.8 3 Este 7 Este 0 -- -- 86
2019-04-20 06:00:00 7.7 2 Nordeste 9 Sudeste 0 -- -- 86
2019-04-20 05:00:00 7.3 2 Este 4 Este 0 -- -- 88
2019-04-20 04:00:00 7.6 3 Este 6 Noroeste 0 -- -- 86
2019-04-20 03:00:00 8.2 0 Calma 12 Este 0 -- -- 85
2019-04-20 02:00:00 8.2 2 Nordeste 6 Norte 0 -- -- 88
2019-04-20 01:00:00 8.4 4 Nordeste 7 Nordeste 0 -- -- 87
2019-04-20 00:00:00 9.3 3 Nordeste 6 Nordeste 0 -- -- 87
2019-04-19 23:00:00 9.8 3 Sudoeste 10 Sudoeste 0.2 -- -- 87
2019-04-19 22:00:00 9.8 4 Sur 8 Noroeste 0.4 -- -- 88
2019-04-19 21:00:00 10.4 3 Nordeste 19 Este 2 -- -- 84
2019-04-19 20:00:00 11.2 13 Este 24 Este 1.2 -- -- 78
2019-04-19 19:00:00 13.5 2 Oeste 8 Sudoeste 0.2 -- -- 73
2019-04-19 18:00:00 15.9 6 Sudoeste 12 Sudoeste 0 -- -- 66
2019-04-19 17:00:00 13 3 Sudoeste 11 Noroeste 0.4 -- -- 80
2019-04-19 16:00:00 11.6 7 Noroeste 13 Noroeste 0.4 -- -- 76
2019-04-19 15:00:00 12.7 6 Noroeste 13 Oeste 0 -- -- 74
2019-04-19 14:00:00 13 6 Sur 20 Este 0.2 -- -- 72
2019-04-19 13:00:00 13.4 8 Sur 17 Sudoeste 0 -- -- 67
2019-04-19 12:00:00 12.3 8 Norte 18 Norte 0 -- -- 64
2019-04-19 11:00:00 13.4 5 Sur 10 Sur 0 -- -- 69
2019-04-19 10:00:00 10.5 2 Este 4 Este 0 -- -- 81
2019-04-19 09:00:00 7.2 3 Nordeste 6 Nordeste 0 -- -- 89
2019-04-19 08:00:00 6.4 0 Calma 8 Nordeste 0 -- -- 87
2019-04-19 07:00:00 6.6 2 Nordeste 5 Nordeste 0 -- -- 88
2019-04-19 06:00:00 7.2 0 Calma 6 Este 0 -- -- 86
2019-04-19 05:00:00 7.1 3 Nordeste 7 Este 0 -- -- 86
2019-04-19 04:00:00 7.2 5 Sudeste 15 Noroeste 0 -- -- 85
2019-04-19 03:00:00 8.3 7 Noroeste 14 Noroeste 0 -- -- 80
2019-04-19 02:00:00 7.5 3 Sudeste 9 Este 0 -- -- 84
2019-04-19 01:00:00 7.8 0 Calma 9 Nordeste 0 -- -- 85
2019-04-19 00:00:00 8.2 0 Calma 8 Nordeste 0 -- -- 85
2019-04-18 23:00:00 8.9 0 Calma 9 Noroeste 0 -- -- 83
2019-04-18 22:00:00 9.3 0 Calma 24 Nordeste 1 -- -- 80
2019-04-18 21:00:00 10 5 Oeste 16 Nordeste 0 -- -- 79
2019-04-18 20:00:00 10.2 10 Nordeste 30 Norte 2 -- -- 77
2019-04-18 19:00:00 12.4 8 Noroeste 29 Oeste 0 -- -- 69
2019-04-18 18:00:00 16.1 13 Oeste 26 Oeste 0 -- -- 56
2019-04-18 17:00:00 15 10 Oeste 26 Oeste 0 -- -- 61
2019-04-18 16:00:00 14.6 10 Oeste 18 Oeste 0.2 -- -- 63
2019-04-18 15:00:00 13.2 15 Oeste 30 Oeste 0 -- -- 74
2019-04-18 14:00:00 13.7 7 Oeste 19 Oeste 0 -- -- 75
2019-04-18 13:00:00 13.9 8 Oeste 18 Oeste 0 -- -- 70
2019-04-18 12:00:00 12 3 Sudoeste 9 Noroeste 0 -- -- 83
2019-04-18 11:00:00 9.5 3 Nordeste 21 Nordeste 1 -- -- 86
2019-04-18 10:00:00 9.9 6 Noroeste 23 Noroeste 0.2 -- -- 79
2019-04-18 09:00:00 9.8 0 Calma 4 Sudeste 0 -- -- 91
2019-04-18 08:00:00 9.3 0 Calma 4 Este 0 -- -- 89
2019-04-18 07:00:00 9.8 3 Sudoeste 5 Sudeste 0.2 -- -- 89
2019-04-18 06:00:00 10 0 Calma 9 Noroeste 0 -- -- 89
2019-04-18 05:00:00 10.3 10 Nordeste 16 Nordeste 0.4 -- -- 82
2019-04-18 04:00:00 10.6 4 Sudeste 7 Este 0.8 -- -- 85
2019-04-18 03:00:00 11.2 0 Calma 13 Sudoeste 0 -- -- 78
2019-04-18 02:00:00 11.7 5 Sudoeste 11 Sudoeste 0 -- -- 71
2019-04-18 01:00:00 11.5 3 Este 9 Nordeste 0 -- -- 78
2019-04-18 00:00:00 12 3 Este 14 Oeste 0 -- -- 73
2019-04-17 23:00:00 12 9 Nordeste 15 Nordeste 0 -- -- 76
2019-04-17 22:00:00 11.9 4 Sudeste 17 Oeste 0 -- -- 81
2019-04-17 21:00:00 13.1 6 Oeste 13 Oeste 0 -- -- 85
2019-04-17 20:00:00 13.5 2 Sur 18 Sudoeste 0 -- -- 78
2019-04-17 19:00:00 13.9 5 Oeste 10 Sudoeste 0 -- -- 75
2019-04-17 18:00:00 14.3 5 Sudeste 18 Sudeste 0 -- -- 75
2019-04-17 17:00:00 14.1 4 Sudeste 22 Sudoeste 0 -- -- 75
2019-04-17 16:00:00 14.1 12 Sudeste 27 Este 0 -- -- 76
2019-04-17 15:00:00 14.2 6 Sudeste 23 Sur 0 -- -- 76
2019-04-17 14:00:00 14.5 8 Sudeste 32 Este 0 -- -- 77
2019-04-17 13:00:00 13.6 9 Sudeste 33 Este 0 -- -- 79
2019-04-17 12:00:00 14.2 16 Sudeste 41 Este 0 -- -- 74
2019-04-17 11:00:00 14.1 17 Este 39 Este 0 -- -- 70
2019-04-17 10:00:00 13.5 18 Este 40 Este 0 -- -- 70
2019-04-17 09:00:00 12.9 22 Este 43 Este 0 -- -- 67
2019-04-17 08:00:00 12.8 11 Este 40 Este 0 -- -- 62
2019-04-17 07:00:00 12.9 17 Este 44 Este 0 -- -- 54
2019-04-17 06:00:00 13 16 Este 39 Este 0 -- -- 51
2019-04-17 05:00:00 12.9 9 Este 39 Sudeste 0 -- -- 55
2019-04-17 04:00:00 13.1 15 Este 41 Este 0 -- -- 56
2019-04-17 03:00:00 12.9 12 Este 31 Este 0 -- -- 51
2019-04-17 02:00:00 13.6 17 Este 34 Este 0 -- -- 45
2019-04-17 01:00:00 13.9 17 Este 40 Nordeste 0 -- -- 45
2019-04-17 00:00:00 14.1 19 Este 40 Nordeste 0 -- -- 50
2019-04-16 23:00:00 14.5 15 Este 35 Este 0 -- -- 45
2019-04-16 22:00:00 15.3 10 Este 23 Este 0 -- -- 42
2019-04-16 21:00:00 16.1 9 Nordeste 19 Este 0 -- -- 48
2019-04-16 20:00:00 20.3 4 Sudeste 18 Sudeste 0 -- -- 46
2019-04-16 19:00:00 22.4 9 Sudeste 19 Sudoeste 0 -- -- 42
2019-04-16 18:00:00 23.7 9 Sudoeste 21 Sur 0 -- -- 37
2019-04-16 17:00:00 23.6 9 Sur 24 Sur 0 -- -- 37
2019-04-16 16:00:00 23.1 11 Sudeste 21 Sur 0 -- -- 37
2019-04-16 15:00:00 22.5 7 Sudeste 21 Sur 0 -- -- 29
2019-04-16 14:00:00 21.3 10 Sur 24 Sudoeste 0 -- -- 35
2019-04-16 13:00:00 20.3 7 Sudoeste 19 Sur 0 -- -- 39
2019-04-16 12:00:00 18.7 3 Sur 10 Noroeste 0 -- -- 47
2019-04-16 11:00:00 16.6 3 Sudoeste 12 Sudoeste 0 -- -- 56
2019-04-16 10:00:00 13.7 4 Sur 9 Nordeste 0 -- -- 69
2019-04-16 09:00:00 10.1 3 Este 9 Nordeste 0 -- -- 79
2019-04-16 08:00:00 9.8 4 Nordeste 7 Este 0 -- -- 76
2019-04-16 07:00:00 9.8 5 Nordeste 8 Nordeste 0 -- -- 79
2019-04-16 06:00:00 10.2 2 Nordeste 9 Sudeste 0 -- -- 81
2019-04-16 05:00:00 10.1 2 Sudeste 5 Noroeste 0 -- -- 81
2019-04-16 04:00:00 10.2 0 Calma 6 Norte 0 -- -- 80
2019-04-16 03:00:00 11.1 4 Noroeste 10 Norte 0 -- -- 79
2019-04-16 02:00:00 10.7 0 Calma 8 Nordeste 0 -- -- 77
2019-04-16 01:00:00 11.6 3 Noroeste 8 Noroeste 0 -- -- 76
2019-04-16 00:00:00 12.4 2 Noroeste 10 Oeste 0 -- -- 75
2019-04-15 23:00:00 13.2 2 Sur 17 Oeste 0 -- -- 75
2019-04-15 22:00:00 14.4 7 Sudoeste 18 Oeste 0 -- -- 73
2019-04-15 21:00:00 15.7 8 Oeste 25 Oeste 0 -- -- 67
2019-04-15 20:00:00 18.7 11 Oeste 31 Oeste 0 -- -- 50
2019-04-15 19:00:00 20.6 8 Oeste 35 Norte 0 -- -- 38
2019-04-15 18:00:00 22.2 13 Oeste 35 Oeste 0 -- -- 35
2019-04-15 17:00:00 22.5 22 Oeste 38 Oeste 0 -- -- 34
2019-04-15 16:00:00 23 17 Oeste 40 Noroeste 0 -- -- 38
2019-04-15 15:00:00 22.9 24 Oeste 42 Oeste 0 -- -- 36
2019-04-15 14:00:00 23 10 Sudoeste 22 Sudoeste 0 -- -- 36
2019-04-15 13:00:00 21.8 7 Sur 19 Oeste 0 -- -- 43
2019-04-15 12:00:00 20.8 8 Sudoeste 18 Sudoeste 0 -- -- 40
2019-04-15 11:00:00 20.6 6 Sur 12 Oeste 0 -- -- 37
2019-04-15 10:00:00 18 3 Este 11 Este 0 -- -- 48
2019-04-15 09:00:00 14.8 0 Calma 4 Este 0 -- -- 64
2019-04-15 08:00:00 15.6 0 Calma 15 Este 0 -- -- 56
2019-04-15 07:00:00 17.8 9 Nordeste 17 Nordeste 0 -- -- 46
2019-04-15 06:00:00 17.8 12 Este 19 Este 0 -- -- 48
2019-04-15 05:00:00 15.6 10 Este 15 Este 0 -- -- 59
2019-04-15 04:00:00 14.4 0 Calma 4 Este 0 -- -- 69
2019-04-15 03:00:00 15.8 0 Calma 8 Nordeste 0 -- -- 63
2019-04-15 02:00:00 16.1 0 Calma 6 Este 0 -- -- 63
2019-04-15 01:00:00 16.5 0 Calma 5 Nordeste 0 -- -- 58
2019-04-15 00:00:00 16.3 0 Calma 5 Este 0 -- -- 63
2019-04-14 23:00:00 16.6 3 Este 4 Este 0 -- -- 61
2019-04-14 22:00:00 17.6 0 Calma 5 Nordeste 0 -- -- 55
2019-04-14 21:00:00 19.2 0 Calma 9 Noroeste 0 -- -- 46
2019-04-14 20:00:00 21.2 5 Noroeste 15 Sudoeste 0 -- -- 44
2019-04-14 19:00:00 24.1 10 Sudoeste 19 Sudoeste 0 -- -- 41
2019-04-14 18:00:00 24.6 12 Oeste 23 Oeste 0 -- -- 41
2019-04-14 17:00:00 25.1 10 Sudoeste 27 Sudoeste 0 -- -- 42
2019-04-14 16:00:00 24.5 11 Sudoeste 23 Sudoeste 0 -- -- 42
2019-04-14 15:00:00 23.5 10 Oeste 23 Oeste 0 -- -- 44
2019-04-14 14:00:00 22.6 5 Oeste 14 Oeste 0 -- -- 45
2019-04-14 13:00:00 21.4 3 Noroeste 14 Oeste 0 -- -- 42
2019-04-14 12:00:00 20.2 6 Noroeste 14 Oeste 0 -- -- 43
2019-04-14 11:00:00 19.3 3 Sur 7 Sur 0 -- -- 49
2019-04-14 10:00:00 16 0 Calma 5 Este 0 -- -- 60
2019-04-14 09:00:00 12 0 Calma 6 Este 0 -- -- 70
2019-04-14 08:00:00 12.5 3 Nordeste 7 Nordeste 0 -- -- 61
2019-04-14 07:00:00 12.5 5 Nordeste 7 Nordeste 0 -- -- 60
2019-04-14 06:00:00 12.5 3 Norte 8 Nordeste 0 -- -- 60
2019-04-14 05:00:00 13.2 4 Nordeste 12 Este 0 -- -- 58
2019-04-14 04:00:00 13.1 3 Este 19 Oeste 0 -- -- 58
2019-04-14 03:00:00 12.5 4 Sudeste 13 Este 0 -- -- 58
2019-04-14 02:00:00 12.2 0 Calma 8 Nordeste 0 -- -- 60
2019-04-14 01:00:00 12.4 2 Este 8 Este 0 -- -- 61
2019-04-14 00:00:00 12.7 3 Este 8 Nordeste 0 -- -- 61
2019-04-13 23:00:00 13.9 2 Nordeste 15 Oeste 0 -- -- 56
2019-04-13 22:00:00 15.6 5 Nordeste 29 Norte 0 -- -- 49
2019-04-13 21:00:00 17 14 Norte 31 Nordeste 0 -- -- 45
2019-04-13 20:00:00 19.4 17 Norte 31 Norte 0 -- -- 39
2019-04-13 19:00:00 21.2 12 Norte 26 Nordeste 0 -- -- 37
2019-04-13 18:00:00 21.9 11 Noroeste 24 Noroeste 0 -- -- 38
2019-04-13 17:00:00 22.1 12 Oeste 22 Oeste 0 -- -- 41
2019-04-13 16:00:00 21.7 8 Oeste 18 Sudoeste 0 -- -- 36
2019-04-13 15:00:00 20.7 11 Oeste 21 Norte 0 -- -- 36
2019-04-13 14:00:00 19.9 3 Nordeste 17 Oeste 0 -- -- 35
2019-04-13 13:00:00 19.3 6 Este 21 Norte 0 -- -- 38
2019-04-13 12:00:00 18 6 Oeste 15 Sudoeste 0 -- -- 40
2019-04-13 11:00:00 16.8 4 Sur 11 Sur 0 -- -- 43
2019-04-13 10:00:00 13.8 0 Calma 3 Este 0 -- -- 60
2019-04-13 09:00:00 9.6 0 Calma 5 Este 0 -- -- 69
2019-04-13 08:00:00 9.3 3 Nordeste 5 Este 0 -- -- 62
2019-04-13 07:00:00 9.7 2 Nordeste 4 Nordeste 0 -- -- 62
2019-04-13 06:00:00 9.6 2 Norte 5 Sudeste 0 -- -- 64
2019-04-13 05:00:00 9.5 2 Este 10 Nordeste 0 -- -- 67
2019-04-13 04:00:00 9.3 0 Calma 10 Nordeste 0 -- -- 67
2019-04-13 03:00:00 9.4 4 Nordeste 7 Nordeste 0 -- -- 65
2019-04-13 02:00:00 10 0 Calma 4 Nordeste 0 -- -- 62
2019-04-13 01:00:00 10.7 5 Nordeste 8 Nordeste 0 -- -- 57
2019-04-13 00:00:00 11.7 0 Calma 8 Nordeste 0 -- -- 54
2019-04-12 23:00:00 13.6 3 Norte 14 Noroeste 0 -- -- 45
2019-04-12 22:00:00 14.1 3 Nordeste 27 Nordeste 0 -- -- 46
2019-04-12 21:00:00 15.5 13 Nordeste 26 Norte 0 -- -- 43
2019-04-12 20:00:00 18.1 12 Norte 30 Nordeste 0 -- -- 39
2019-04-12 19:00:00 19.5 7 Nordeste 23 Oeste 0 -- -- 37
2019-04-12 18:00:00 20.1 7 Norte 29 Noroeste 0 -- -- 35
2019-04-12 17:00:00 20.4 6 Nordeste 20 Norte 0 -- -- 33
2019-04-12 16:00:00 19.8 10 Nordeste 24 Oeste 0 -- -- 35
2019-04-12 15:00:00 19.3 9 Nordeste 27 Oeste 0 -- -- 37
2019-04-12 14:00:00 18 10 Noroeste 26 Noroeste 0 -- -- 38
2019-04-12 13:00:00 17 9 Noroeste 22 Este 0 -- -- 35
2019-04-12 12:00:00 15.9 10 Norte 22 Nordeste 0 -- -- 37
2019-04-12 11:00:00 15 6 Sudeste 12 Este 0 -- -- 46
2019-04-12 10:00:00 12.2 3 Sudeste 7 Sur 0 -- -- 61
2019-04-12 09:00:00 8.5 2 Este 10 Este 0 -- -- 68
2019-04-12 08:00:00 8.3 3 Sudeste 9 Norte 0 -- -- 69
2019-04-12 07:00:00 8.1 2 Este 8 Nordeste 0 -- -- 76
2019-04-12 06:00:00 8.2 4 Nordeste 9 Norte 0 -- -- 76
2019-04-12 05:00:00 8.4 0 Calma 6 Nordeste 0 -- -- 76
2019-04-12 04:00:00 8.7 3 Nordeste 6 Este 0 -- -- 76
2019-04-12 03:00:00 9.3 3 Nordeste 5 Nordeste 0 -- -- 75
2019-04-12 02:00:00 9.2 2 Nordeste 6 Nordeste 0 -- -- 76
2019-04-12 01:00:00 9.9 0 Calma 6 Norte 0 -- -- 71
2019-04-12 00:00:00 10.1 0 Calma 6 Este 0 -- -- 69
2019-04-11 23:00:00 11.3 2 Noroeste 7 Noroeste 0 -- -- 64
2019-04-11 22:00:00 12.1 0 Calma 6 Nordeste 0 -- -- 62
2019-04-11 21:00:00 14.1 0 Calma 24 Norte 0 -- -- 51
2019-04-11 20:00:00 16.6 6 Nordeste 26 Nordeste 0 -- -- 44
2019-04-11 19:00:00 17.1 6 Noroeste 28 Nordeste 0 -- -- 44
2019-04-11 18:00:00 17.6 14 Nordeste 28 Nordeste 0 -- -- 46
2019-04-11 17:00:00 17.2 11 Norte 31 Nordeste 0 -- -- 45
2019-04-11 16:00:00 17.6 9 Nordeste 33 Nordeste 0 -- -- 43
2019-04-11 15:00:00 16.7 16 Nordeste 37 Nordeste 0 -- -- 42
2019-04-11 14:00:00 16.3 18 Nordeste 39 Este 0 -- -- 40
2019-04-11 13:00:00 16 13 Nordeste 28 Este 0 -- -- 44
2019-04-11 12:00:00 14.3 10 Noroeste 31 Noroeste 0 -- -- 50
2019-04-11 11:00:00 13.7 4 Este 10 Oeste 0 -- -- 57
2019-04-11 10:00:00 10.6 0 Calma 4 Nordeste 0 -- -- 74
2019-04-11 09:00:00 7.3 2 Nordeste 5 Norte 0 -- -- 80
2019-04-11 08:00:00 7.2 2 Nordeste 6 Nordeste 0 -- -- 79
2019-04-11 07:00:00 6.7 0 Calma 8 Nordeste 0 -- -- 81
2019-04-11 06:00:00 7.5 3 Sur 9 Sur 0 -- -- 76
2019-04-11 05:00:00 8.3 5 Sudeste 27 Norte 0 -- -- 74
2019-04-11 04:00:00 9.7 13 Norte 26 Norte 0 -- -- 68
2019-04-11 03:00:00 9.4 6 Nordeste 17 Norte 0 -- -- 68
2019-04-11 02:00:00 9.6 3 Este 10 Norte 0 -- -- 67
2019-04-11 01:00:00 10.5 2 Oeste 12 Nordeste 0 -- -- 62
2019-04-11 00:00:00 10.9 3 Oeste 12 Oeste 0 -- -- 61
2019-04-10 23:00:00 11.8 9 Noroeste 27 Noroeste 0 -- -- 63
2019-04-10 22:00:00 11.6 7 Oeste 17 Oeste 0 -- -- 67
2019-04-10 21:00:00 11.9 3 Oeste 13 Oeste 0 -- -- 69
2019-04-10 20:00:00 12.5 2 Sudoeste 20 Oeste 0 -- -- 66
2019-04-10 19:00:00 13.4 10 Oeste 32 Norte 0 -- -- 58
2019-04-10 18:00:00 14.6 12 Noroeste 34 Norte 0 -- -- 48
2019-04-10 17:00:00 14 10 Noroeste 35 Oeste 0 -- -- 51
2019-04-10 16:00:00 15.3 10 Norte 32 Nordeste 0 -- -- 52
2019-04-10 15:00:00 14.5 9 Norte 40 Este 0 -- -- 53
2019-04-10 14:00:00 13.7 12 Nordeste 31 Nordeste 0 -- -- 50
2019-04-10 13:00:00 12.8 11 Noroeste 30 Oeste 0 -- -- 52
2019-04-10 12:00:00 11.5 12 Norte 33 Nordeste 0 -- -- 59
2019-04-10 11:00:00 10.5 8 Nordeste 23 Nordeste 0 -- -- 68
2019-04-10 10:00:00 8.5 12 Nordeste 36 Norte 0 -- -- 76
2019-04-10 09:00:00 6.8 5 Sudeste 27 Norte 0 -- -- 82
2019-04-10 08:00:00 7.1 16 Nordeste 35 Nordeste 0 -- -- 79
2019-04-10 07:00:00 7.2 9 Nordeste 25 Nordeste 0 -- -- 78
2019-04-10 06:00:00 7.7 7 Nordeste 23 Nordeste 0 -- -- 76
2019-04-10 05:00:00 8.4 15 Nordeste 28 Nordeste 0 -- -- 78
2019-04-10 04:00:00 8.8 6 Nordeste 21 Nordeste 0 -- -- 77
2019-04-10 03:00:00 9.4 4 Noroeste 21 Nordeste 0 -- -- 77
2019-04-10 02:00:00 10 6 Norte 26 Norte 0 -- -- 74
2019-04-10 01:00:00 10.5 8 Noroeste 24 Noroeste 0 -- -- 75
2019-04-10 00:00:00 10.4 6 Norte 13 Oeste 0 -- -- 76
2019-04-09 23:00:00 10.4 8 Noroeste 19 Noroeste 0 -- -- 76
2019-04-09 22:00:00 10.4 11 Noroeste 21 Noroeste 0 -- -- 74
2019-04-09 21:00:00 11 8 Noroeste 28 Oeste 0 -- -- 72
2019-04-09 20:00:00 11.8 13 Oeste 33 Oeste 0 -- -- 66
2019-04-09 19:00:00 12.5 16 Oeste 31 Oeste 0 -- -- 63
2019-04-09 18:00:00 13.4 18 Oeste 36 Oeste 0 -- -- 63
2019-04-09 17:00:00 14.5 17 Oeste 36 Oeste 0 -- -- 57
2019-04-09 16:00:00 13.5 12 Oeste 35 Oeste 0 -- -- 55
2019-04-09 15:00:00 13 17 Oeste 38 Oeste 0 -- -- 62
2019-04-09 14:00:00 14.1 15 Noroeste 31 Noroeste 0 -- -- 59
2019-04-09 13:00:00 12.5 14 Noroeste 38 Noroeste 0 -- -- 59
2019-04-09 12:00:00 11.9 17 Oeste 30 Oeste 0 -- -- 64
2019-04-09 11:00:00 10.6 13 Oeste 23 Oeste 0 -- -- 72
2019-04-09 10:00:00 9.5 4 Oeste 17 Noroeste 0 -- -- 75
2019-04-09 09:00:00 8.2 7 Norte 22 Norte 0 -- -- 74
2019-04-09 08:00:00 7.8 9 Norte 24 Norte 0 -- -- 72
2019-04-09 07:00:00 8 9 Norte 26 Norte 0 -- -- 71
2019-04-09 06:00:00 8.4 8 Norte 32 Norte 0 -- -- 68
2019-04-09 05:00:00 8.9 14 Norte 36 Norte 0 -- -- 68
2019-04-09 04:00:00 8.5 6 Norte 18 Noroeste 0 -- -- 71
2019-04-09 03:00:00 8.8 3 Sur 23 Oeste 0 -- -- 77
2019-04-09 02:00:00 9.8 7 Noroeste 33 Norte 0 -- -- 74
2019-04-09 01:00:00 9.8 9 Noroeste 42 Noroeste 0.2 -- -- 77
2019-04-09 00:00:00 9.4 10 Oeste 31 Noroeste 0 -- -- 79
2019-04-08 23:00:00 9.7 4 Sudoeste 25 Noroeste 0 -- -- 84
2019-04-08 22:00:00 10.3 12 Noroeste 30 Noroeste 0 -- -- 85
2019-04-08 21:00:00 10.4 9 Noroeste 25 Noroeste 0 -- -- 88
2019-04-08 20:00:00 10.7 13 Oeste 24 Noroeste 0 -- -- 90
2019-04-08 19:00:00 11 10 Oeste 28 Oeste 0.4 -- -- 91
2019-04-08 18:00:00 11.9 12 Oeste 34 Oeste 0.8 -- -- 89
2019-04-08 17:00:00 12.2 12 Oeste 32 Oeste 0 -- -- 80
2019-04-08 16:00:00 12.2 17 Oeste 36 Oeste 0 -- -- 80
2019-04-08 15:00:00 12.1 11 Oeste 27 Oeste 0 -- -- 86
2019-04-08 14:00:00 11.9 8 Oeste 23 Oeste 0 -- -- 89
2019-04-08 13:00:00 11.9 7 Oeste 18 Oeste 0.2 -- -- 88
2019-04-08 12:00:00 11 6 Oeste 16 Oeste 0.6 -- -- 93
2019-04-08 11:00:00 10.9 2 Oeste 4 Oeste 0 -- -- 93
2019-04-08 10:00:00 10.4 3 Sudoeste 11 Sudoeste 0 -- -- 93
2019-04-08 09:00:00 9.8 2 Este 11 Noroeste 0 -- -- 94
2019-04-08 08:00:00 9.8 0 Calma 18 Oeste 0 -- -- 95
2019-04-08 07:00:00 10 5 Oeste 13 Sudoeste 0 -- -- 95
2019-04-08 06:00:00 10.1 4 Sur 10 Oeste 0.2 -- -- 95
2019-04-08 05:00:00 10.1 4 Oeste 12 Sudoeste 1 -- -- 94
2019-04-08 04:00:00 10.3 3 Sudoeste 17 Noroeste 0 -- -- 92
2019-04-08 03:00:00 10.4 4 Oeste 11 Oeste 0 -- -- 94
2019-04-08 02:00:00 10.4 2 Sudoeste 12 Oeste 0.2 -- -- 94
2019-04-08 01:00:00 10.3 4 Sur 16 Oeste 0 -- -- 93
2019-04-08 00:00:00 10.5 5 Sudoeste 26 Oeste 0 -- -- 92
2019-04-07 23:00:00 10.5 11 Oeste 26 Oeste 0.4 -- -- 94
2019-04-07 22:00:00 10.8 10 Oeste 40 Oeste 1 -- -- 93
2019-04-07 21:00:00 11 10 Oeste 38 Oeste 4 -- -- 94
2019-04-07 20:00:00 10.9 11 Oeste 30 Oeste 3.2 -- -- 95
2019-04-07 19:00:00 10.8 4 Sudoeste 12 Sur 3.4 -- -- 94
2019-04-07 18:00:00 11.1 4 Sudoeste 22 Oeste 2.4 -- -- 92
2019-04-07 17:00:00 12.8 12 Oeste 26 Oeste 0 -- -- 83
2019-04-07 16:00:00 12.6 13 Oeste 37 Oeste 0 -- -- 81
2019-04-07 15:00:00 10.9 16 Oeste 33 Oeste 0 -- -- 87
2019-04-07 14:00:00 9.8 9 Oeste 28 Oeste 0 -- -- 88
2019-04-07 13:00:00 9.4 13 Oeste 35 Oeste 0 -- -- 87
2019-04-07 12:00:00 9.2 16 Oeste 34 Oeste 0 -- -- 83
2019-04-07 11:00:00 8.5 8 Oeste 23 Oeste 0 -- -- 86
2019-04-07 10:00:00 8.7 9 Oeste 27 Oeste 0 -- -- 82
2019-04-07 09:00:00 7.7 9 Oeste 28 Oeste 0 -- -- 85
2019-04-07 08:00:00 7.2 6 Oeste 33 Oeste 0.2 -- -- 85
2019-04-07 07:00:00 7.1 10 Oeste 34 Oeste 0 -- -- 85
2019-04-07 06:00:00 7 9 Oeste 31 Oeste 0 -- -- 87
2019-04-07 05:00:00 6.9 13 Oeste 37 Oeste 0.6 -- -- 88
2019-04-07 04:00:00 7.1 6 Oeste 25 Oeste 0 -- -- 86
2019-04-07 03:00:00 7.3 13 Oeste 30 Oeste 0.6 -- -- 89
2019-04-07 02:00:00 7.3 10 Oeste 24 Oeste 0.2 -- -- 89
2019-04-07 01:00:00 7.4 10 Oeste 25 Noroeste 0.8 -- -- 90
2019-04-07 00:00:00 7.2 5 Oeste 31 Oeste 1 -- -- 88
2019-04-06 23:00:00 7.8 12 Oeste 39 Oeste 0.6 -- -- 87
2019-04-06 22:00:00 7.9 15 Oeste 46 Noroeste 0.4 -- -- 85
2019-04-06 21:00:00 8.3 12 Oeste 46 Oeste 0 -- -- 78
2019-04-06 20:00:00 8.9 22 Oeste 38 Oeste 0 -- -- 78
2019-04-06 19:00:00 8.5 8 Oeste 49 Oeste 0.4 -- -- 83
2019-04-06 18:00:00 8.7 14 Oeste 41 Noroeste 0 -- -- 83
2019-04-06 17:00:00 8.2 10 Oeste 41 Oeste 1 -- -- 83
2019-04-06 16:00:00 9.2 13 Sudoeste 30 Sudoeste 0 -- -- 82
2019-04-06 15:00:00 8.6 14 Oeste 28 Oeste 0.6 -- -- 81
2019-04-06 14:00:00 7.6 6 Oeste 22 Noroeste 0.6 -- -- 85
2019-04-06 13:00:00 7 13 Noroeste 32 Oeste 1.6 -- -- 85
2019-04-06 12:00:00 8.4 6 Noroeste 23 Norte 0 -- -- 82
2019-04-06 11:00:00 7.5 6 Noroeste 32 Oeste 0.8 -- -- 86
2019-04-06 10:00:00 7.1 9 Oeste 15 Oeste 0.2 -- -- 84
2019-04-06 09:00:00 6.1 6 Noroeste 17 Noroeste 0.4 -- -- 84
2019-04-06 08:00:00 5.7 6 Oeste 31 Oeste 1 -- -- 86
2019-04-06 07:00:00 6.7 12 Oeste 30 Noroeste 0 -- -- 82
2019-04-06 06:00:00 7 9 Noroeste 26 Oeste 0 -- -- 73
2019-04-06 05:00:00 6.9 7 Oeste 19 Oeste 0 -- -- 73
2019-04-06 04:00:00 6.9 6 Oeste 31 Oeste 0 -- -- 72
2019-04-06 03:00:00 6.9 16 Oeste 36 Oeste 0 -- -- 71
2019-04-06 02:00:00 6.8 9 Oeste 32 Noroeste 0 -- -- 73
2019-04-06 01:00:00 6.8 11 Oeste 31 Noroeste 0 -- -- 72
2019-04-06 00:00:00 6.9 5 Noroeste 27 Nordeste 0 -- -- 74
2019-04-05 23:00:00 6.8 5 Oeste 30 Oeste 0 -- -- 78
2019-04-05 22:00:00 6.8 9 Noroeste 33 Noroeste 0.8 -- -- 80
2019-04-05 21:00:00 7.1 13 Oeste 43 Oeste 0 -- -- 77
2019-04-05 20:00:00 8 16 Noroeste 42 Oeste 0 -- -- 70
2019-04-05 19:00:00 10 18 Oeste 58 Oeste 0 -- -- 56
2019-04-05 18:00:00 10.4 15 Oeste 47 Oeste 0 -- -- 56
2019-04-05 17:00:00 11 22 Oeste 56 Oeste 0 -- -- 52
2019-04-05 16:00:00 10.6 19 Oeste 49 Oeste 0 -- -- 60
2019-04-05 15:00:00 9.6 17 Noroeste 56 Oeste 0 -- -- 66
2019-04-05 14:00:00 9.6 16 Noroeste 40 Oeste 0.2 -- -- 77
2019-04-05 13:00:00 7.2 4 Oeste 29 Norte 3.8 -- -- 91
2019-04-05 12:00:00 8.1 7 Sudoeste 28 Oeste 0.4 -- -- 91
2019-04-05 11:00:00 7.5 8 Oeste 26 Oeste 0.8 -- -- 93
2019-04-05 10:00:00 6.9 10 Oeste 34 Oeste 1.4 -- -- 88
2019-04-05 09:00:00 7.6 20 Oeste 41 Oeste 5.8 -- -- 94
2019-04-05 08:00:00 7.6 10 Sudoeste 27 Oeste 1.8 -- -- 93
2019-04-05 07:00:00 7.5 8 Sudoeste 32 Oeste 0.6 -- -- 89
2019-04-05 06:00:00 7.5 4 Oeste 14 Oeste 0.2 -- -- 85
2019-04-05 05:00:00 7.2 11 Oeste 25 Oeste 0.2 -- -- 83
2019-04-05 04:00:00 8.1 10 Oeste 27 Noroeste 0 -- -- 76
2019-04-05 03:00:00 8 8 Oeste 30 Oeste 0 -- -- 74
2019-04-05 02:00:00 8.1 15 Oeste 27 Oeste 0 -- -- 73
2019-04-05 01:00:00 7.7 4 Oeste 17 Oeste 0 -- -- 71
2019-04-05 00:00:00 6.9 7 Noroeste 18 Noroeste 0 -- -- 69
2019-04-04 23:00:00 7.3 6 Oeste 14 Noroeste 0 -- -- 65
2019-04-04 22:00:00 8.2 10 Oeste 24 Oeste 0 -- -- 59
2019-04-04 21:00:00 9.8 14 Oeste 29 Oeste 0 -- -- 56
2019-04-04 20:00:00 12.8 13 Sudoeste 26 Sudoeste 0 -- -- 59
2019-04-04 19:00:00 14 15 Sudoeste 30 Sudoeste 0 -- -- 52
2019-04-04 18:00:00 16 15 Sudoeste 35 Oeste 0 -- -- 47
2019-04-04 17:00:00 16.3 12 Oeste 31 Oeste 0 -- -- 43
2019-04-04 16:00:00 16.1 13 Oeste 30 Oeste 0 -- -- 42
2019-04-04 15:00:00 15.7 16 Oeste 23 Oeste 0 -- -- 44
2019-04-04 14:00:00 15.2 13 Oeste 22 Oeste 0 -- -- 44
2019-04-04 13:00:00 14.2 8 Oeste 25 Oeste 0 -- -- 45
2019-04-04 12:00:00 12.8 8 Noroeste 18 Noroeste 0 -- -- 48
2019-04-04 11:00:00 11.6 4 Sudoeste 12 Noroeste 0 -- -- 47
2019-04-04 10:00:00 8.4 3 Sur 5 Sur 0 -- -- 70
2019-04-04 09:00:00 5.5 0 Calma 10 Norte 0 -- -- 79
2019-04-04 08:00:00 5.7 4 Sudeste 8 Sudeste 0 -- -- 78
2019-04-04 07:00:00 6.8 5 Sudeste 12 Sudeste 0 -- -- 75
2019-04-04 06:00:00 7.3 5 Sur 12 Sudoeste 0 -- -- 74
2019-04-04 05:00:00 8.3 5 Sudeste 11 Sudoeste 0 -- -- 71
2019-04-04 04:00:00 9.3 6 Sur 23 Norte 0 -- -- 67
2019-04-04 03:00:00 10.3 5 Sudeste 25 Este 0 -- -- 62
2019-04-04 02:00:00 10.6 13 Sudeste 30 Nordeste 0 -- -- 63
2019-04-04 01:00:00 10.6 10 Sudeste 36 Nordeste 0 -- -- 59
2019-04-04 00:00:00 11.6 14 Nordeste 35 Norte 0 -- -- 54
2019-04-03 23:00:00 11.6 8 Sudoeste 19 Oeste 0 -- -- 56
2019-04-03 22:00:00 11.9 5 Sudoeste 13 Sudeste 0 -- -- 54
2019-04-03 21:00:00 14.2 5 Norte 23 Oeste 0 -- -- 45
2019-04-03 20:00:00 17.2 11 Noroeste 27 Oeste 0 -- -- 39
2019-04-03 19:00:00 18.4 11 Noroeste 32 Oeste 0 -- -- 42
2019-04-03 18:00:00 19.4 13 Oeste 30 Oeste 0 -- -- 41
2019-04-03 17:00:00 19.7 12 Oeste 33 Oeste 0 -- -- 44
2019-04-03 16:00:00 19.3 12 Noroeste 30 Oeste 0 -- -- 38
2019-04-03 15:00:00 19 11 Oeste 28 Oeste 0 -- -- 40
2019-04-03 14:00:00 18.5 14 Oeste 27 Oeste 0 -- -- 51
2019-04-03 13:00:00 18.2 8 Sudoeste 18 Sudoeste 0 -- -- 46
2019-04-03 12:00:00 17.3 5 Sudoeste 12 Sur 0 -- -- 51
2019-04-03 11:00:00 15.5 3 Sur 7 Sudoeste 0 -- -- 56
2019-04-03 10:00:00 11.9 0 Calma 4 Este 0 -- -- 77
2019-04-03 09:00:00 9 3 Este 9 Nordeste 0 -- -- 72
2019-04-03 08:00:00 8.9 6 Nordeste 10 Nordeste 0 -- -- 72
2019-04-03 07:00:00 9.1 4 Nordeste 9 Nordeste 0 -- -- 70
2019-04-03 06:00:00 9.3 6 Nordeste 9 Nordeste 0 -- -- 70
2019-04-03 05:00:00 9.2 4 Este 8 Nordeste 0 -- -- 71
2019-04-03 04:00:00 9.7 5 Nordeste 9 Nordeste 0 -- -- 73
2019-04-03 03:00:00 10 3 Nordeste 8 Nordeste 0 -- -- 79
2019-04-03 02:00:00 10.2 3 Este 6 Nordeste 0 -- -- 82
2019-04-03 01:00:00 10.6 0 Calma 6 Nordeste 0 -- -- 81
2019-04-03 00:00:00 11.5 3 Nordeste 9 Este 0 -- -- 79
2019-04-02 23:00:00 12 5 Nordeste 9 Nordeste 0 -- -- 79
2019-04-02 22:00:00 12.4 0 Calma 9 Sudeste 0 -- -- 77
2019-04-02 21:00:00 13.3 0 Calma 9 Oeste 0 -- -- 75
2019-04-02 20:00:00 14.9 4 Oeste 13 Oeste 0 -- -- 69
2019-04-02 19:00:00 15.3 5 Oeste 15 Sur 0 -- -- 68
2019-04-02 18:00:00 16.9 7 Sudoeste 20 Sudoeste 0 -- -- 64
2019-04-02 17:00:00 18.1 9 Sudoeste 20 Sur 0 -- -- 57
2019-04-02 16:00:00 18.9 12 Sur 21 Sur 0 -- -- 53
2019-04-02 15:00:00 17.7 9 Sudoeste 22 Sudoeste 0 -- -- 53
2019-04-02 14:00:00 16.7 6 Noroeste 19 Oeste 0 -- -- 49
2019-04-02 13:00:00 16.2 3 Noroeste 11 Oeste 0 -- -- 59
2019-04-02 12:00:00 15.2 5 Oeste 10 Oeste 0 -- -- 59
2019-04-02 11:00:00 13.3 3 Oeste 6 Sudoeste 0 -- -- 68
2019-04-02 10:00:00 10.2 0 Calma 3 Nordeste 0 -- -- 82
2019-04-02 09:00:00 7.3 0 Calma 10 Nordeste 0 -- -- 83
2019-04-02 08:00:00 6.7 5 Nordeste 9 Este 0 -- -- 84
2019-04-02 07:00:00 6.7 4 Nordeste 10 Nordeste 0 -- -- 84
2019-04-02 06:00:00 7.1 6 Nordeste 10 Nordeste 0 -- -- 84
2019-04-02 05:00:00 6.9 2 Este 8 Nordeste 0 -- -- 85
2019-04-02 04:00:00 7.4 2 Nordeste 8 Este 0 -- -- 86
2019-04-02 03:00:00 7.6 0 Calma 7 Norte 0 -- -- 90
2019-04-02 02:00:00 7.8 0 Calma 8 Nordeste 0 -- -- 89
2019-04-02 01:00:00 8.8 2 Este 9 Nordeste 0 -- -- 86
2019-04-02 00:00:00 9 0 Calma 8 Nordeste 0 -- -- 88
2019-04-01 23:00:00 9.9 5 Nordeste 7 Nordeste 0 -- -- 87
2019-04-01 22:00:00 10.5 2 Este 10 Oeste 0 -- -- 86
2019-04-01 21:00:00 12 2 Oeste 10 Sudoeste 0 -- -- 82
2019-04-01 20:00:00 13.4 5 Sudoeste 11 Oeste 0 -- -- 79
2019-04-01 19:00:00 13.9 6 Sudoeste 22 Oeste 0 -- -- 75
2019-04-01 18:00:00 14.2 9 Sudoeste 18 Oeste 0 -- -- 79
2019-04-01 17:00:00 13.9 9 Sudoeste 18 Sudoeste 0 -- -- 79
2019-04-01 16:00:00 13.3 4 Sur 12 Sur 0 -- -- 88
2019-04-01 15:00:00 12.7 5 Sudoeste 14 Sur 0 -- -- 88
2019-04-01 14:00:00 11.3 0 Calma 5 Oeste 0.2 -- -- 91
2019-04-01 13:00:00 10.6 2 Sudeste 4 Este 1.4 -- -- 92
2019-04-01 12:00:00 10.3 2 Sudoeste 9 Sur 2 -- -- 93
2019-04-01 11:00:00 10.1 0 Calma 8 Sur 0 -- -- 94
2019-04-01 10:00:00 9.4 0 Calma 6 Noroeste 1.2 -- -- 94
2019-04-01 09:00:00 9.2 4 Noroeste 10 Oeste 3.2 -- -- 92
2019-04-01 08:00:00 9.4 5 Este 14 Sudoeste 1.2 -- -- 93
2019-04-01 07:00:00 9.8 6 Sudoeste 26 Sudoeste 1.6 -- -- 93
2019-04-01 06:00:00 10 0 Calma 5 Este 0 -- -- 93
2019-04-01 05:00:00 10 4 Este 8 Nordeste 0 -- -- 92
2019-04-01 04:00:00 9.9 3 Nordeste 6 Sudeste 0 -- -- 92
2019-04-01 03:00:00 9.9 2 Nordeste 5 Oeste 0 -- -- 91
2019-04-01 02:00:00 10.9 2 Oeste 6 Sudoeste 0 -- -- 92
2019-04-01 01:00:00 11.5 4 Sudoeste 10 Sur 0 -- -- 92
2019-04-01 00:00:00 11.7 2 Este 5 Sudoeste 0 -- -- 92
2019-03-31 23:00:00 11.8 2 Noroeste 5 Oeste 0 -- -- 91
2019-03-31 22:00:00 11.8 0 Calma 10 Sur 0 -- -- 90
2019-03-31 21:00:00 11.9 6 Sudoeste 16 Sudoeste 0 -- -- 90
2019-03-31 20:00:00 13 5 Oeste 13 Oeste 0 -- -- 87
2019-03-31 19:00:00 14.4 3 Noroeste 12 Oeste 3.6 -- -- 81
2019-03-31 18:00:00 15.1 8 Oeste 13 Oeste 1.6 -- -- 81
2019-03-31 17:00:00 13.8 3 Oeste 13 Noroeste 1.8 -- -- 83
2019-03-31 16:00:00 14.9 8 Oeste 17 Sudoeste 0.8 -- -- 77
2019-03-31 15:00:00 16.4 9 Sudoeste 16 Sudoeste 0 -- -- 71
2019-03-31 14:00:00 14.3 3 Noroeste 10 Noroeste 0 -- -- 80
2019-03-31 13:00:00 14.1 4 Sudoeste 8 Oeste 0 -- -- 80
2019-03-31 12:00:00 12.4 3 Noroeste 10 Oeste 0 -- -- 83
2019-03-31 11:00:00 11.7 4 Oeste 12 Este 0 -- -- 89
2019-03-31 10:00:00 10.4 7 Este 14 Este 0 -- -- 93
2019-03-31 09:00:00 9.8 3 Noroeste 5 Este 0 -- -- 93
2019-03-31 08:00:00 9.8 0 Calma 5 Este 0 -- -- 93
2019-03-31 07:00:00 9.8 0 Calma 5 Oeste 0 -- -- 93
2019-03-31 06:00:00 9.8 0 Calma 6 Oeste 0.8 -- -- 93
2019-03-31 05:00:00 10 3 Noroeste 7 Oeste 1.4 -- -- 92
2019-03-31 03:00:00 10.3 7 Este 16 Este 2 -- -- 89
2019-03-31 01:00:00 10.6 2 Sudoeste 23 Este 0.2 -- -- 86
2019-03-31 00:00:00 10.4 6 Este 14 Este 0.2 -- -- 87
2019-03-30 23:00:00 10.3 7 Este 18 Este 0 -- -- 84
2019-03-30 22:00:00 10.5 5 Sur 30 Este 0 -- -- 79
2019-03-30 21:00:00 11.2 8 Este 24 Este 0 -- -- 74
2019-03-30 20:00:00 10.6 3 Sur 17 Sudeste 0 -- -- 80
2019-03-30 19:00:00 11 6 Este 28 Sudeste 0 -- -- 78
2019-03-30 18:00:00 11 7 Sudeste 25 Sudeste 0 -- -- 83
2019-03-30 17:00:00 11 10 Sudeste 25 Sur 0 -- -- 83
2019-03-30 16:00:00 12.5 10 Sur 29 Sur 0 -- -- 75
2019-03-30 15:00:00 13.9 12 Sudeste 26 Sur 0 -- -- 70
2019-03-30 14:00:00 14.5 12 Sur 33 Sudoeste 0 -- -- 66
2019-03-30 13:00:00 15 13 Sur 35 Sur 0 -- -- 61
2019-03-30 12:00:00 13.7 14 Sur 36 Sur 0 -- -- 66
2019-03-30 11:00:00 11.7 12 Sur 29 Sur 0 -- -- 73
2019-03-30 10:00:00 12 11 Sudeste 27 Sudeste 0 -- -- 68
2019-03-30 09:00:00 10 9 Sudeste 21 Sudeste 0 -- -- 70
2019-03-30 08:00:00 8.5 5 Este 25 Sudeste 0 -- -- 75
2019-03-30 07:00:00 8.9 11 Este 39 Este 0 -- -- 80
2019-03-30 06:00:00 9.1 13 Este 36 Este 0 -- -- 79
2019-03-30 05:00:00 9.2 9 Nordeste 29 Sudeste 0 -- -- 80
2019-03-30 04:00:00 9.3 10 Nordeste 42 Sudoeste 0 -- -- 78
2019-03-30 03:00:00 9.5 10 Sudeste 39 Sudeste 0 -- -- 78
2019-03-30 02:00:00 9.4 10 Este 30 Sudeste 0 -- -- 78
2019-03-30 01:00:00 9.6 12 Este 40 Este 0 -- -- 79
2019-03-30 00:00:00 9.6 12 Este 33 Sudeste 0 -- -- 80
2019-03-29 23:00:00 9.5 8 Sudeste 28 Nordeste 0 -- -- 80
2019-03-29 22:00:00 9.1 8 Este 32 Este 0 -- -- 77
2019-03-29 21:00:00 9.4 6 Este 20 Este 0 -- -- 78
2019-03-29 20:00:00 9.8 8 Sudeste 22 Sur 0 -- -- 79
2019-03-29 19:00:00 11 10 Sur 28 Sur 0 -- -- 75
2019-03-29 18:00:00 11.8 8 Sudeste 26 Sudeste 0 -- -- 71
2019-03-29 17:00:00 12.6 8 Sudeste 24 Sudoeste 0 -- -- 74
2019-03-29 16:00:00 11.4 9 Sudeste 33 Sudeste 0 -- -- 74
2019-03-29 15:00:00 12.3 14 Sur 38 Sudeste 0 -- -- 71
2019-03-29 14:00:00 12.7 16 Sudeste 40 Sur 0 -- -- 68
2019-03-29 13:00:00 11.5 10 Sudeste 29 Sudeste 0 -- -- 73
2019-03-29 12:00:00 11.9 10 Sudeste 31 Sudeste 0 -- -- 70
2019-03-29 11:00:00 10.7 9 Sudeste 30 Sudeste 0 -- -- 74
2019-03-29 10:00:00 9.8 9 Este 30 Este 0 -- -- 75
2019-03-29 09:00:00 9.3 7 Este 30 Este 0 -- -- 72
2019-03-29 08:00:00 8.9 9 Este 32 Este 0 -- -- 70
2019-03-29 07:00:00 8.4 10 Este 29 Este 0 -- -- 66
2019-03-29 06:00:00 8.3 7 Este 27 Este 0 -- -- 63
2019-03-29 05:00:00 8.2 8 Este 30 Sudeste 0 -- -- 68
2019-03-29 04:00:00 8.4 14 Este 32 Sudeste 0 -- -- 66
2019-03-29 03:00:00 8.7 9 Este 39 Este 0 -- -- 52
2019-03-29 02:00:00 9 13 Este 36 Este 0 -- -- 42
2019-03-29 01:00:00 8.9 12 Este 33 Sudeste 0 -- -- 47
2019-03-29 00:00:00 9.3 15 Este 40 Este 0 -- -- 49
2019-03-28 23:00:00 9.3 14 Este 34 Este 0 -- -- 62
2019-03-28 22:00:00 9.5 15 Este 32 Sudeste 0 -- -- 61
2019-03-28 21:00:00 9.7 13 Este 37 Este 0 -- -- 42
2019-03-28 20:00:00 10.4 10 Este 31 Sur 0 -- -- 45
2019-03-28 19:00:00 11.7 12 Sur 33 Sudeste 0 -- -- 52
2019-03-28 18:00:00 14.2 12 Sudeste 33 Este 0 -- -- 53
2019-03-28 17:00:00 14.6 17 Sur 46 Sur 0 -- -- 52
2019-03-28 16:00:00 14.7 21 Sudeste 48 Sudeste 0 -- -- 53
2019-03-28 15:00:00 15 18 Sudeste 52 Este 0 -- -- 51
2019-03-28 14:00:00 14.6 22 Sur 48 Este 0 -- -- 52
2019-03-28 13:00:00 14.1 18 Sudeste 43 Este 0 -- -- 53
2019-03-28 12:00:00 13 17 Sudeste 44 Sudeste 0 -- -- 56
2019-03-28 11:00:00 12.2 15 Este 50 Sudeste 0 -- -- 54
2019-03-28 10:00:00 10.7 13 Sudeste 44 Nordeste 0 -- -- 57
2019-03-28 09:00:00 9.3 13 Sudeste 37 Este 0 -- -- 62
2019-03-28 08:00:00 7.8 12 Este 27 Sudeste 0 -- -- 66
2019-03-28 07:00:00 7.4 8 Este 24 Sudeste 0 -- -- 67
2019-03-28 06:00:00 7.2 6 Este 18 Sur 0 -- -- 69
2019-03-28 05:00:00 7.3 8 Sudeste 27 Sudeste 0 -- -- 70
2019-03-28 04:00:00 7.5 9 Sudeste 24 Este 0 -- -- 71
2019-03-28 03:00:00 7.8 7 Sudeste 33 Sudeste 0 -- -- 70
2019-03-28 02:00:00 8.6 11 Sudeste 41 Sur 0 -- -- 74
2019-03-28 01:00:00 9 12 Sudeste 41 Sudeste 0 -- -- 77
2019-03-28 00:00:00 9.3 10 Sudeste 48 Sudeste 0 -- -- 77
2019-03-27 23:00:00 9.6 14 Este 38 Sudeste 0 -- -- 76
2019-03-27 22:00:00 9.5 12 Sudeste 32 Este 0 -- -- 74
2019-03-27 21:00:00 9.1 8 Este 29 Este 0 -- -- 69
2019-03-27 20:00:00 9.4 6 Sur 23 Sudeste 0 -- -- 67
2019-03-27 19:00:00 11.8 12 Sudeste 33 Sudeste 0 -- -- 61
2019-03-27 18:00:00 13.2 15 Sudeste 33 Este 0 -- -- 54
2019-03-27 17:00:00 13.9 15 Sudeste 37 Sur 0 -- -- 50
2019-03-27 16:00:00 14.4 15 Sur 32 Sudeste 0 -- -- 48
2019-03-27 15:00:00 14.8 8 Sudeste 40 Sudeste 0 -- -- 47
2019-03-27 14:00:00 13.8 19 Sudeste 46 Sudeste 0 -- -- 42
2019-03-27 13:00:00 13.3 18 Sudeste 44 Sudeste 0 -- -- 44
2019-03-27 12:00:00 12.7 18 Sudeste 55 Sudeste 0 -- -- 50
2019-03-27 11:00:00 11.5 17 Sudeste 47 Sudeste 0 -- -- 58
2019-03-27 10:00:00 9.6 8 Sur 39 Sudeste 0 -- -- 66
2019-03-27 09:00:00 8.9 11 Sudeste 50 Este 0 -- -- 70
2019-03-27 08:00:00 8.2 15 Sudeste 49 Sur 0 -- -- 73
2019-03-27 07:00:00 8.1 19 Sudeste 46 Este 0 -- -- 71
2019-03-27 06:00:00 8.3 16 Este 48 Sudeste 0 -- -- 70
2019-03-27 05:00:00 8.4 11 Sudeste 51 Sudeste 0 -- -- 68
2019-03-27 04:00:00 8.6 16 Sudeste 48 Este 0 -- -- 70
2019-03-27 03:00:00 9.1 18 Sudeste 53 Este 0 -- -- 76
2019-03-27 02:00:00 9.3 13 Este 42 Este 0 -- -- 76
2019-03-27 01:00:00 9.6 17 Este 44 Este 0 -- -- 72
2019-03-27 00:00:00 9.5 12 Este 43 Nordeste 0 -- -- 70